sensor_id;sensor_type;location;lat;lon;timestamp;pressure;altitude;pressure_sealevel;temperature
12854;BMP180;6495;51.808;7.478;2022-07-29T00:01:18;101243.00;;;20.30
12854;BMP180;6495;51.808;7.478;2022-07-29T00:03:47;101235.00;;;20.30
12854;BMP180;6495;51.808;7.478;2022-07-29T00:06:16;101238.00;;;20.30
12854;BMP180;6495;51.808;7.478;2022-07-29T00:08:44;101232.00;;;20.30
12854;BMP180;6495;51.808;7.478;2022-07-29T00:11:14;101229.00;;;20.30
12854;BMP180;6495;51.808;7.478;2022-07-29T00:13:42;101227.00;;;20.20
12854;BMP180;6495;51.808;7.478;2022-07-29T00:16:16;101225.00;;;20.20
12854;BMP180;6495;51.808;7.478;2022-07-29T00:18:45;101221.00;;;20.10
12854;BMP180;6495;51.808;7.478;2022-07-29T00:21:14;101218.00;;;20.10
12854;BMP180;6495;51.808;7.478;2022-07-29T00:23:42;101216.00;;;20.10
12854;BMP180;6495;51.808;7.478;2022-07-29T00:26:11;101221.00;;;20.10
12854;BMP180;6495;51.808;7.478;2022-07-29T00:28:40;101217.00;;;20.10
12854;BMP180;6495;51.808;7.478;2022-07-29T00:31:09;101216.00;;;20.00
12854;BMP180;6495;51.808;7.478;2022-07-29T00:33:37;101214.00;;;20.00
12854;BMP180;6495;51.808;7.478;2022-07-29T00:36:05;101210.00;;;20.00
12854;BMP180;6495;51.808;7.478;2022-07-29T00:38:33;101204.00;;;20.00
12854;BMP180;6495;51.808;7.478;2022-07-29T00:41:01;101202.00;;;19.90
12854;BMP180;6495;51.808;7.478;2022-07-29T00:43:29;101193.00;;;19.90
12854;BMP180;6495;51.808;7.478;2022-07-29T00:45:58;101198.00;;;19.90
12854;BMP180;6495;51.808;7.478;2022-07-29T00:48:26;101195.00;;;19.90
12854;BMP180;6495;51.808;7.478;2022-07-29T00:50:55;101192.00;;;19.90
12854;BMP180;6495;51.808;7.478;2022-07-29T00:53:25;101187.00;;;19.90
12854;BMP180;6495;51.808;7.478;2022-07-29T00:55:54;101183.00;;;19.90
12854;BMP180;6495;51.808;7.478;2022-07-29T00:58:24;101179.00;;;19.80
12854;BMP180;6495;51.808;7.478;2022-07-29T01:00:52;101178.00;;;19.80
12854;BMP180;6495;51.808;7.478;2022-07-29T01:03:22;101174.00;;;19.80
12854;BMP180;6495;51.808;7.478;2022-07-29T01:05:51;101163.00;;;19.70
12854;BMP180;6495;51.808;7.478;2022-07-29T01:08:20;101154.00;;;19.70
12854;BMP180;6495;51.808;7.478;2022-07-29T01:10:50;101154.00;;;19.70
12854;BMP180;6495;51.808;7.478;2022-07-29T01:13:21;101143.00;;;19.60
12854;BMP180;6495;51.808;7.478;2022-07-29T01:15:56;101152.00;;;19.60
12854;BMP180;6495;51.808;7.478;2022-07-29T01:18:34;101148.00;;;19.60
12854;BMP180;6495;51.808;7.478;2022-07-29T01:21:40;101154.00;;;19.60
12854;BMP180;6495;51.808;7.478;2022-07-29T01:24:39;101151.00;;;19.50
12854;BMP180;6495;51.808;7.478;2022-07-29T01:27:35;101151.00;;;19.50
12854;BMP180;6495;51.808;7.478;2022-07-29T01:30:10;101147.00;;;19.50
12854;BMP180;6495;51.808;7.478;2022-07-29T01:32:47;101153.00;;;19.40
12854;BMP180;6495;51.808;7.478;2022-07-29T01:35:22;101146.00;;;19.40
12854;BMP180;6495;51.808;7.478;2022-07-29T01:38:01;101142.00;;;19.40
12854;BMP180;6495;51.808;7.478;2022-07-29T01:40:36;101148.00;;;19.30
12854;BMP180;6495;51.808;7.478;2022-07-29T01:43:13;101143.00;;;19.30
12854;BMP180;6495;51.808;7.478;2022-07-29T01:45:56;101136.00;;;19.30
12854;BMP180;6495;51.808;7.478;2022-07-29T01:48:34;101133.00;;;19.30
12854;BMP180;6495;51.808;7.478;2022-07-29T01:51:09;101145.00;;;19.30
12854;BMP180;6495;51.808;7.478;2022-07-29T01:53:47;101136.00;;;19.30
12854;BMP180;6495;51.808;7.478;2022-07-29T01:56:18;101128.00;;;19.30
12854;BMP180;6495;51.808;7.478;2022-07-29T01:58:49;101117.00;;;19.20
12854;BMP180;6495;51.808;7.478;2022-07-29T02:01:21;101116.00;;;19.20
12854;BMP180;6495;51.808;7.478;2022-07-29T02:03:52;101111.00;;;19.20
12854;BMP180;6495;51.808;7.478;2022-07-29T02:06:23;101111.00;;;19.10
12854;BMP180;6495;51.808;7.478;2022-07-29T02:08:53;101117.00;;;19.10
12854;BMP180;6495;51.808;7.478;2022-07-29T02:11:22;101109.00;;;19.10
12854;BMP180;6495;51.808;7.478;2022-07-29T02:13:54;101108.00;;;19.10
12854;BMP180;6495;51.808;7.478;2022-07-29T02:16:27;101103.00;;;19.00
12854;BMP180;6495;51.808;7.478;2022-07-29T02:19:00;101108.00;;;19.00
12854;BMP180;6495;51.808;7.478;2022-07-29T02:21:30;101090.00;;;19.00
12854;BMP180;6495;51.808;7.478;2022-07-29T02:24:02;101100.00;;;19.00
12854;BMP180;6495;51.808;7.478;2022-07-29T02:26:33;101096.00;;;19.00
12854;BMP180;6495;51.808;7.478;2022-07-29T02:29:02;101091.00;;;19.00
12854;BMP180;6495;51.808;7.478;2022-07-29T02:31:35;101090.00;;;19.00
12854;BMP180;6495;51.808;7.478;2022-07-29T02:34:08;101087.00;;;19.00
12854;BMP180;6495;51.808;7.478;2022-07-29T02:36:37;101083.00;;;18.90
12854;BMP180;6495;51.808;7.478;2022-07-29T02:39:07;101079.00;;;18.90
12854;BMP180;6495;51.808;7.478;2022-07-29T02:41:43;101084.00;;;18.90
12854;BMP180;6495;51.808;7.478;2022-07-29T02:44:14;101080.00;;;18.90
12854;BMP180;6495;51.808;7.478;2022-07-29T02:46:49;101096.00;;;18.90
12854;BMP180;6495;51.808;7.478;2022-07-29T02:49:32;101090.00;;;18.90
12854;BMP180;6495;51.808;7.478;2022-07-29T02:52:06;101092.00;;;18.90
12854;BMP180;6495;51.808;7.478;2022-07-29T02:54:42;101100.00;;;18.90
12854;BMP180;6495;51.808;7.478;2022-07-29T02:57:21;101099.00;;;18.90
12854;BMP180;6495;51.808;7.478;2022-07-29T02:59:52;101099.00;;;18.80
12854;BMP180;6495;51.808;7.478;2022-07-29T03:02:25;101099.00;;;18.80
12854;BMP180;6495;51.808;7.478;2022-07-29T03:04:56;101088.00;;;18.70
12854;BMP180;6495;51.808;7.478;2022-07-29T03:07:27;101095.00;;;18.70
12854;BMP180;6495;51.808;7.478;2022-07-29T03:09:56;101103.00;;;18.70
12854;BMP180;6495;51.808;7.478;2022-07-29T03:12:26;101096.00;;;18.60
12854;BMP180;6495;51.808;7.478;2022-07-29T03:14:56;101099.00;;;18.60
12854;BMP180;6495;51.808;7.478;2022-07-29T03:17:26;101091.00;;;18.60
12854;BMP180;6495;51.808;7.478;2022-07-29T03:19:55;101090.00;;;18.60
12854;BMP180;6495;51.808;7.478;2022-07-29T03:22:24;101090.00;;;18.70
12854;BMP180;6495;51.808;7.478;2022-07-29T03:24:52;101094.00;;;18.60
12854;BMP180;6495;51.808;7.478;2022-07-29T03:27:21;101089.00;;;18.60
12854;BMP180;6495;51.808;7.478;2022-07-29T03:29:49;101086.00;;;18.60
12854;BMP180;6495;51.808;7.478;2022-07-29T03:32:17;101090.00;;;18.60
12854;BMP180;6495;51.808;7.478;2022-07-29T03:34:52;101082.00;;;18.60
12854;BMP180;6495;51.808;7.478;2022-07-29T03:37:20;101077.00;;;18.60
12854;BMP180;6495;51.808;7.478;2022-07-29T03:39:50;101083.00;;;18.60
12854;BMP180;6495;51.808;7.478;2022-07-29T03:42:23;101085.00;;;18.60
12854;BMP180;6495;51.808;7.478;2022-07-29T03:45:02;101082.00;;;18.60
12854;BMP180;6495;51.808;7.478;2022-07-29T03:47:34;101088.00;;;18.60
12854;BMP180;6495;51.808;7.478;2022-07-29T03:50:21;101075.00;;;18.60
12854;BMP180;6495;51.808;7.478;2022-07-29T03:52:49;101086.00;;;18.60
12854;BMP180;6495;51.808;7.478;2022-07-29T03:55:17;101087.00;;;18.60
12854;BMP180;6495;51.808;7.478;2022-07-29T03:57:49;101087.00;;;18.60
12854;BMP180;6495;51.808;7.478;2022-07-29T04:00:17;101092.00;;;18.60
12854;BMP180;6495;51.808;7.478;2022-07-29T04:02:46;101088.00;;;18.60
12854;BMP180;6495;51.808;7.478;2022-07-29T04:05:17;101080.00;;;18.60
12854;BMP180;6495;51.808;7.478;2022-07-29T04:07:48;101071.00;;;18.60
12854;BMP180;6495;51.808;7.478;2022-07-29T04:10:17;101085.00;;;18.50
12854;BMP180;6495;51.808;7.478;2022-07-29T04:12:58;101091.00;;;18.50
12854;BMP180;6495;51.808;7.478;2022-07-29T04:15:26;101087.00;;;18.50
12854;BMP180;6495;51.808;7.478;2022-07-29T04:17:58;101100.00;;;18.50
12854;BMP180;6495;51.808;7.478;2022-07-29T04:20:26;101095.00;;;18.50
12854;BMP180;6495;51.808;7.478;2022-07-29T04:22:55;101090.00;;;18.50
12854;BMP180;6495;51.808;7.478;2022-07-29T04:25:23;101080.00;;;18.40
12854;BMP180;6495;51.808;7.478;2022-07-29T04:27:51;101077.00;;;18.40
12854;BMP180;6495;51.808;7.478;2022-07-29T04:30:29;101076.00;;;18.40
12854;BMP180;6495;51.808;7.478;2022-07-29T04:32:57;101084.00;;;18.40
12854;BMP180;6495;51.808;7.478;2022-07-29T04:35:25;101087.00;;;18.30
12854;BMP180;6495;51.808;7.478;2022-07-29T04:37:55;101083.00;;;18.40
12854;BMP180;6495;51.808;7.478;2022-07-29T04:40:23;101090.00;;;18.40
12854;BMP180;6495;51.808;7.478;2022-07-29T04:42:51;101093.00;;;18.40
12854;BMP180;6495;51.808;7.478;2022-07-29T04:45:20;101089.00;;;18.30
12854;BMP180;6495;51.808;7.478;2022-07-29T04:47:48;101104.00;;;18.30
12854;BMP180;6495;51.808;7.478;2022-07-29T04:50:16;101102.00;;;18.30
12854;BMP180;6495;51.808;7.478;2022-07-29T04:52:44;101103.00;;;18.30
12854;BMP180;6495;51.808;7.478;2022-07-29T04:55:14;101103.00;;;18.30
12854;BMP180;6495;51.808;7.478;2022-07-29T04:57:42;101109.00;;;18.30
12854;BMP180;6495;51.808;7.478;2022-07-29T05:00:11;101115.00;;;18.30
12854;BMP180;6495;51.808;7.478;2022-07-29T05:02:39;101119.00;;;18.40
12854;BMP180;6495;51.808;7.478;2022-07-29T05:05:08;101119.00;;;18.40
12854;BMP180;6495;51.808;7.478;2022-07-29T05:07:36;101122.00;;;18.40
12854;BMP180;6495;51.808;7.478;2022-07-29T05:10:05;101125.00;;;18.40
12854;BMP180;6495;51.808;7.478;2022-07-29T05:12:35;101129.00;;;18.40
12854;BMP180;6495;51.808;7.478;2022-07-29T05:15:04;101152.00;;;18.50
12854;BMP180;6495;51.808;7.478;2022-07-29T05:17:32;101150.00;;;18.50
12854;BMP180;6495;51.808;7.478;2022-07-29T05:20:00;101156.00;;;18.50
12854;BMP180;6495;51.808;7.478;2022-07-29T05:22:28;101155.00;;;18.50
12854;BMP180;6495;51.808;7.478;2022-07-29T05:24:56;101155.00;;;18.50
12854;BMP180;6495;51.808;7.478;2022-07-29T05:27:24;101164.00;;;18.50
12854;BMP180;6495;51.808;7.478;2022-07-29T05:29:53;101171.00;;;18.50
12854;BMP180;6495;51.808;7.478;2022-07-29T05:32:21;101172.00;;;18.50
12854;BMP180;6495;51.808;7.478;2022-07-29T05:34:49;101178.00;;;18.40
12854;BMP180;6495;51.808;7.478;2022-07-29T05:37:18;101183.00;;;18.40
12854;BMP180;6495;51.808;7.478;2022-07-29T05:39:46;101183.00;;;18.40
12854;BMP180;6495;51.808;7.478;2022-07-29T05:42:23;101184.00;;;18.40
12854;BMP180;6495;51.808;7.478;2022-07-29T05:44:52;101193.00;;;18.40
12854;BMP180;6495;51.808;7.478;2022-07-29T05:47:20;101183.00;;;18.50
12854;BMP180;6495;51.808;7.478;2022-07-29T05:49:49;101184.00;;;18.50
12854;BMP180;6495;51.808;7.478;2022-07-29T05:52:17;101182.00;;;18.60
12854;BMP180;6495;51.808;7.478;2022-07-29T05:54:45;101185.00;;;18.60
12854;BMP180;6495;51.808;7.478;2022-07-29T05:57:16;101187.00;;;18.60
12854;BMP180;6495;51.808;7.478;2022-07-29T05:59:44;101180.00;;;18.60
12854;BMP180;6495;51.808;7.478;2022-07-29T06:02:14;101179.00;;;18.60
12854;BMP180;6495;51.808;7.478;2022-07-29T06:04:43;101177.00;;;18.70
12854;BMP180;6495;51.808;7.478;2022-07-29T06:07:11;101182.00;;;18.70
12854;BMP180;6495;51.808;7.478;2022-07-29T06:09:39;101173.00;;;18.70
12854;BMP180;6495;51.808;7.478;2022-07-29T06:12:08;101183.00;;;18.70
12854;BMP180;6495;51.808;7.478;2022-07-29T06:14:36;101179.00;;;18.70
12854;BMP180;6495;51.808;7.478;2022-07-29T06:17:04;101174.00;;;18.80
12854;BMP180;6495;51.808;7.478;2022-07-29T06:19:35;101165.00;;;18.70
12854;BMP180;6495;51.808;7.478;2022-07-29T06:22:04;101162.00;;;18.60
12854;BMP180;6495;51.808;7.478;2022-07-29T06:24:32;101164.00;;;18.60
12854;BMP180;6495;51.808;7.478;2022-07-29T06:27:00;101154.00;;;18.60
12854;BMP180;6495;51.808;7.478;2022-07-29T06:29:28;101149.00;;;18.60
12854;BMP180;6495;51.808;7.478;2022-07-29T06:31:56;101133.00;;;18.50
12854;BMP180;6495;51.808;7.478;2022-07-29T06:34:24;101137.00;;;18.50
12854;BMP180;6495;51.808;7.478;2022-07-29T06:36:53;101136.00;;;18.40
12854;BMP180;6495;51.808;7.478;2022-07-29T06:39:22;101155.00;;;18.40
12854;BMP180;6495;51.808;7.478;2022-07-29T06:41:50;101158.00;;;18.40
12854;BMP180;6495;51.808;7.478;2022-07-29T06:44:18;101159.00;;;18.40
12854;BMP180;6495;51.808;7.478;2022-07-29T06:46:46;101164.00;;;18.40
12854;BMP180;6495;51.808;7.478;2022-07-29T06:49:16;101150.00;;;18.40
12854;BMP180;6495;51.808;7.478;2022-07-29T06:51:44;101154.00;;;18.40
12854;BMP180;6495;51.808;7.478;2022-07-29T06:54:14;101161.00;;;18.50
12854;BMP180;6495;51.808;7.478;2022-07-29T06:56:43;101155.00;;;18.50
12854;BMP180;6495;51.808;7.478;2022-07-29T06:59:12;101162.00;;;18.50
12854;BMP180;6495;51.808;7.478;2022-07-29T07:01:42;101166.00;;;18.50
12854;BMP180;6495;51.808;7.478;2022-07-29T07:04:11;101154.00;;;18.50
12854;BMP180;6495;51.808;7.478;2022-07-29T07:06:40;101152.00;;;18.50
12854;BMP180;6495;51.808;7.478;2022-07-29T07:09:08;101164.00;;;18.50
12854;BMP180;6495;51.808;7.478;2022-07-29T07:11:38;101171.00;;;18.60
12854;BMP180;6495;51.808;7.478;2022-07-29T07:14:06;101175.00;;;18.60
12854;BMP180;6495;51.808;7.478;2022-07-29T07:16:34;101180.00;;;18.60
12854;BMP180;6495;51.808;7.478;2022-07-29T07:19:02;101186.00;;;18.60
12854;BMP180;6495;51.808;7.478;2022-07-29T07:21:30;101186.00;;;18.70
12854;BMP180;6495;51.808;7.478;2022-07-29T07:23:58;101186.00;;;18.70
12854;BMP180;6495;51.808;7.478;2022-07-29T07:26:28;101189.00;;;18.70
12854;BMP180;6495;51.808;7.478;2022-07-29T07:28:57;101193.00;;;18.70
12854;BMP180;6495;51.808;7.478;2022-07-29T07:31:27;101195.00;;;18.70
12854;BMP180;6495;51.808;7.478;2022-07-29T07:33:55;101197.00;;;18.70
12854;BMP180;6495;51.808;7.478;2022-07-29T07:36:23;101191.00;;;18.80
12854;BMP180;6495;51.808;7.478;2022-07-29T07:38:51;101194.00;;;18.80
12854;BMP180;6495;51.808;7.478;2022-07-29T07:41:20;101186.00;;;18.80
12854;BMP180;6495;51.808;7.478;2022-07-29T07:43:48;101184.00;;;18.80
12854;BMP180;6495;51.808;7.478;2022-07-29T07:46:17;101191.00;;;18.80
12854;BMP180;6495;51.808;7.478;2022-07-29T07:48:45;101185.00;;;18.80
12854;BMP180;6495;51.808;7.478;2022-07-29T07:51:13;101183.00;;;18.80
12854;BMP180;6495;51.808;7.478;2022-07-29T07:53:41;101184.00;;;18.90
12854;BMP180;6495;51.808;7.478;2022-07-29T07:56:11;101187.00;;;18.90
12854;BMP180;6495;51.808;7.478;2022-07-29T07:58:39;101181.00;;;18.90
12854;BMP180;6495;51.808;7.478;2022-07-29T08:01:08;101180.00;;;18.80
12854;BMP180;6495;51.808;7.478;2022-07-29T08:03:37;101177.00;;;18.90
12854;BMP180;6495;51.808;7.478;2022-07-29T08:06:06;101173.00;;;18.90
12854;BMP180;6495;51.808;7.478;2022-07-29T08:08:34;101170.00;;;18.90
12854;BMP180;6495;51.808;7.478;2022-07-29T08:11:02;101170.00;;;18.90
12854;BMP180;6495;51.808;7.478;2022-07-29T08:13:36;101171.00;;;19.00
12854;BMP180;6495;51.808;7.478;2022-07-29T08:16:06;101168.00;;;19.00
12854;BMP180;6495;51.808;7.478;2022-07-29T08:18:46;101174.00;;;19.00
12854;BMP180;6495;51.808;7.478;2022-07-29T08:21:15;101171.00;;;19.10
12854;BMP180;6495;51.808;7.478;2022-07-29T08:23:44;101168.00;;;19.10
12854;BMP180;6495;51.808;7.478;2022-07-29T08:26:27;101168.00;;;19.10
12854;BMP180;6495;51.808;7.478;2022-07-29T08:28:55;101168.00;;;19.10
12854;BMP180;6495;51.808;7.478;2022-07-29T08:31:23;101180.00;;;19.20
12854;BMP180;6495;51.808;7.478;2022-07-29T08:33:53;101186.00;;;19.20
12854;BMP180;6495;51.808;7.478;2022-07-29T08:36:22;101194.00;;;19.30
12854;BMP180;6495;51.808;7.478;2022-07-29T08:38:50;101192.00;;;19.40
12854;BMP180;6495;51.808;7.478;2022-07-29T08:41:19;101202.00;;;19.40
12854;BMP180;6495;51.808;7.478;2022-07-29T08:43:47;101206.00;;;19.50
12854;BMP180;6495;51.808;7.478;2022-07-29T08:46:16;101211.00;;;19.60
12854;BMP180;6495;51.808;7.478;2022-07-29T08:48:44;101210.00;;;19.60
12854;BMP180;6495;51.808;7.478;2022-07-29T08:51:16;101202.00;;;19.70
12854;BMP180;6495;51.808;7.478;2022-07-29T08:53:47;101218.00;;;19.80
12854;BMP180;6495;51.808;7.478;2022-07-29T08:56:18;101210.00;;;19.80
12854;BMP180;6495;51.808;7.478;2022-07-29T08:58:47;101210.00;;;19.90
12854;BMP180;6495;51.808;7.478;2022-07-29T09:01:23;101204.00;;;19.90
12854;BMP180;6495;51.808;7.478;2022-07-29T09:04:06;101196.00;;;19.90
12854;BMP180;6495;51.808;7.478;2022-07-29T09:06:42;101198.00;;;19.90
12854;BMP180;6495;51.808;7.478;2022-07-29T09:09:10;101206.00;;;20.00
12854;BMP180;6495;51.808;7.478;2022-07-29T09:11:41;101202.00;;;20.00
12854;BMP180;6495;51.808;7.478;2022-07-29T09:14:12;101204.00;;;20.00
12854;BMP180;6495;51.808;7.478;2022-07-29T09:16:50;101207.00;;;20.10
12854;BMP180;6495;51.808;7.478;2022-07-29T09:19:30;101217.00;;;20.20
12854;BMP180;6495;51.808;7.478;2022-07-29T09:22:01;101219.00;;;20.20
12854;BMP180;6495;51.808;7.478;2022-07-29T09:24:44;101219.00;;;20.30
12854;BMP180;6495;51.808;7.478;2022-07-29T09:27:22;101217.00;;;20.40
12854;BMP180;6495;51.808;7.478;2022-07-29T09:29:57;101216.00;;;20.40
12854;BMP180;6495;51.808;7.478;2022-07-29T09:32:26;101219.00;;;20.50
12854;BMP180;6495;51.808;7.478;2022-07-29T09:35:14;101231.00;;;20.60
12854;BMP180;6495;51.808;7.478;2022-07-29T09:37:44;101225.00;;;20.60
12854;BMP180;6495;51.808;7.478;2022-07-29T09:40:15;101219.00;;;20.70
12854;BMP180;6495;51.808;7.478;2022-07-29T09:42:45;101210.00;;;20.70
12854;BMP180;6495;51.808;7.478;2022-07-29T09:45:27;101202.00;;;20.70
12854;BMP180;6495;51.808;7.478;2022-07-29T09:47:57;101202.00;;;20.60
12854;BMP180;6495;51.808;7.478;2022-07-29T09:50:38;101199.00;;;20.60
12854;BMP180;6495;51.808;7.478;2022-07-29T09:53:08;101192.00;;;20.60
12854;BMP180;6495;51.808;7.478;2022-07-29T09:55:48;101193.00;;;20.60
12854;BMP180;6495;51.808;7.478;2022-07-29T09:58:18;101191.00;;;20.50
12854;BMP180;6495;51.808;7.478;2022-07-29T10:00:49;101194.00;;;20.50
12854;BMP180;6495;51.808;7.478;2022-07-29T10:03:18;101187.00;;;20.50
12854;BMP180;6495;51.808;7.478;2022-07-29T10:06:04;101193.00;;;20.50
12854;BMP180;6495;51.808;7.478;2022-07-29T10:08:34;101193.00;;;20.40
12854;BMP180;6495;51.808;7.478;2022-07-29T10:11:13;101199.00;;;20.50
12854;BMP180;6495;51.808;7.478;2022-07-29T10:13:44;101194.00;;;20.40
12854;BMP180;6495;51.808;7.478;2022-07-29T10:16:15;101195.00;;;20.40
12854;BMP180;6495;51.808;7.478;2022-07-29T10:18:44;101194.00;;;20.40
12854;BMP180;6495;51.808;7.478;2022-07-29T10:21:13;101199.00;;;20.40
12854;BMP180;6495;51.808;7.478;2022-07-29T10:24:05;101195.00;;;20.40
12854;BMP180;6495;51.808;7.478;2022-07-29T10:26:42;101188.00;;;20.40
12854;BMP180;6495;51.808;7.478;2022-07-29T10:29:10;101184.00;;;20.40
12854;BMP180;6495;51.808;7.478;2022-07-29T10:31:50;101188.00;;;20.40
12854;BMP180;6495;51.808;7.478;2022-07-29T10:34:36;101182.00;;;20.30
12854;BMP180;6495;51.808;7.478;2022-07-29T10:37:16;101187.00;;;20.30
12854;BMP180;6495;51.808;7.478;2022-07-29T10:40:00;101187.00;;;20.30
12854;BMP180;6495;51.808;7.478;2022-07-29T10:42:53;101192.00;;;20.30
12854;BMP180;6495;51.808;7.478;2022-07-29T10:45:22;101194.00;;;20.30
12854;BMP180;6495;51.808;7.478;2022-07-29T10:48:03;101192.00;;;20.30
12854;BMP180;6495;51.808;7.478;2022-07-29T10:50:52;101192.00;;;20.40
12854;BMP180;6495;51.808;7.478;2022-07-29T10:53:21;101199.00;;;20.40
12854;BMP180;6495;51.808;7.478;2022-07-29T10:55:52;101196.00;;;20.40
12854;BMP180;6495;51.808;7.478;2022-07-29T10:58:22;101193.00;;;20.40
12854;BMP180;6495;51.808;7.478;2022-07-29T11:00:53;101191.00;;;20.40
12854;BMP180;6495;51.808;7.478;2022-07-29T11:03:43;101192.00;;;20.40
12854;BMP180;6495;51.808;7.478;2022-07-29T11:06:17;101182.00;;;20.40
12854;BMP180;6495;51.808;7.478;2022-07-29T11:09:17;101187.00;;;20.40
12854;BMP180;6495;51.808;7.478;2022-07-29T11:12:02;101179.00;;;20.30
12854;BMP180;6495;51.808;7.478;2022-07-29T11:14:57;101186.00;;;20.30
12854;BMP180;6495;51.808;7.478;2022-07-29T11:17:26;101187.00;;;20.20
12854;BMP180;6495;51.808;7.478;2022-07-29T11:20:32;101194.00;;;20.10
12854;BMP180;6495;51.808;7.478;2022-07-29T11:23:28;101190.00;;;20.10
12854;BMP180;6495;51.808;7.478;2022-07-29T11:26:18;101180.00;;;20.00
12854;BMP180;6495;51.808;7.478;2022-07-29T11:28:59;101182.00;;;19.90
12854;BMP180;6495;51.808;7.478;2022-07-29T11:31:37;101179.00;;;19.70
12854;BMP180;6495;51.808;7.478;2022-07-29T11:34:23;101178.00;;;19.70
12854;BMP180;6495;51.808;7.478;2022-07-29T11:37:22;101173.00;;;19.60
12854;BMP180;6495;51.808;7.478;2022-07-29T11:40:15;101168.00;;;19.50
12854;BMP180;6495;51.808;7.478;2022-07-29T11:42:46;101168.00;;;19.40
12854;BMP180;6495;51.808;7.478;2022-07-29T11:45:45;101170.00;;;19.40
12854;BMP180;6495;51.808;7.478;2022-07-29T11:48:18;101179.00;;;19.40
12854;BMP180;6495;51.808;7.478;2022-07-29T11:50:59;101181.00;;;19.40
12854;BMP180;6495;51.808;7.478;2022-07-29T11:53:27;101185.00;;;19.40
12854;BMP180;6495;51.808;7.478;2022-07-29T11:55:59;101181.00;;;19.30
12854;BMP180;6495;51.808;7.478;2022-07-29T11:58:29;101184.00;;;19.30
12854;BMP180;6495;51.808;7.478;2022-07-29T12:00:59;101177.00;;;19.30
12854;BMP180;6495;51.808;7.478;2022-07-29T12:03:31;101179.00;;;19.30
12854;BMP180;6495;51.808;7.478;2022-07-29T12:06:10;101180.00;;;19.20
12854;BMP180;6495;51.808;7.478;2022-07-29T12:08:42;101177.00;;;19.20
12854;BMP180;6495;51.808;7.478;2022-07-29T12:11:18;101180.00;;;19.20
12854;BMP180;6495;51.808;7.478;2022-07-29T12:13:49;101178.00;;;19.30
12854;BMP180;6495;51.808;7.478;2022-07-29T12:16:20;101185.00;;;19.20
12854;BMP180;6495;51.808;7.478;2022-07-29T12:18:57;101173.00;;;19.30
12854;BMP180;6495;51.808;7.478;2022-07-29T12:21:25;101172.00;;;19.30
12854;BMP180;6495;51.808;7.478;2022-07-29T12:23:56;101181.00;;;19.40
12854;BMP180;6495;51.808;7.478;2022-07-29T12:26:35;101185.00;;;19.50
12854;BMP180;6495;51.808;7.478;2022-07-29T12:29:06;101183.00;;;19.60
12854;BMP180;6495;51.808;7.478;2022-07-29T12:31:43;101186.00;;;19.70
12854;BMP180;6495;51.808;7.478;2022-07-29T12:34:13;101174.00;;;19.80
12854;BMP180;6495;51.808;7.478;2022-07-29T12:36:43;101181.00;;;19.80
12854;BMP180;6495;51.808;7.478;2022-07-29T12:39:11;101189.00;;;19.90
12854;BMP180;6495;51.808;7.478;2022-07-29T12:41:39;101187.00;;;20.00
12854;BMP180;6495;51.808;7.478;2022-07-29T12:44:08;101174.00;;;20.00
12854;BMP180;6495;51.808;7.478;2022-07-29T12:46:36;101171.00;;;20.10
12854;BMP180;6495;51.808;7.478;2022-07-29T12:49:06;101166.00;;;20.10
12854;BMP180;6495;51.808;7.478;2022-07-29T12:51:37;101172.00;;;20.10
12854;BMP180;6495;51.808;7.478;2022-07-29T12:54:08;101174.00;;;20.20
12854;BMP180;6495;51.808;7.478;2022-07-29T12:56:38;101159.00;;;20.30
12854;BMP180;6495;51.808;7.478;2022-07-29T12:59:14;101170.00;;;20.40
12854;BMP180;6495;51.808;7.478;2022-07-29T13:01:43;101164.00;;;20.50
12854;BMP180;6495;51.808;7.478;2022-07-29T13:04:24;101162.00;;;20.70
12854;BMP180;6495;51.808;7.478;2022-07-29T13:07:00;101163.00;;;20.80
12854;BMP180;6495;51.808;7.478;2022-07-29T13:09:41;101167.00;;;21.00
12854;BMP180;6495;51.808;7.478;2022-07-29T13:12:11;101167.00;;;21.20
12854;BMP180;6495;51.808;7.478;2022-07-29T13:14:42;101170.00;;;21.40
12854;BMP180;6495;51.808;7.478;2022-07-29T13:17:13;101175.00;;;21.50
12854;BMP180;6495;51.808;7.478;2022-07-29T13:19:46;101171.00;;;21.70
12854;BMP180;6495;51.808;7.478;2022-07-29T13:22:17;101185.00;;;21.80
12854;BMP180;6495;51.808;7.478;2022-07-29T13:24:51;101183.00;;;21.90
12854;BMP180;6495;51.808;7.478;2022-07-29T13:27:24;101177.00;;;22.00
12854;BMP180;6495;51.808;7.478;2022-07-29T13:29:54;101176.00;;;22.10
12854;BMP180;6495;51.808;7.478;2022-07-29T13:32:23;101176.00;;;22.20
12854;BMP180;6495;51.808;7.478;2022-07-29T13:34:57;101173.00;;;22.30
12854;BMP180;6495;51.808;7.478;2022-07-29T13:37:26;101165.00;;;22.40
12854;BMP180;6495;51.808;7.478;2022-07-29T13:39:56;101164.00;;;22.40
12854;BMP180;6495;51.808;7.478;2022-07-29T13:42:26;101160.00;;;22.50
12854;BMP180;6495;51.808;7.478;2022-07-29T13:44:54;101166.00;;;22.60
12854;BMP180;6495;51.808;7.478;2022-07-29T13:47:22;101168.00;;;22.80
12854;BMP180;6495;51.808;7.478;2022-07-29T13:50:00;101171.00;;;22.90
12854;BMP180;6495;51.808;7.478;2022-07-29T13:52:29;101169.00;;;23.00
12854;BMP180;6495;51.808;7.478;2022-07-29T13:54:57;101157.00;;;23.00
12854;BMP180;6495;51.808;7.478;2022-07-29T13:57:25;101165.00;;;23.00
12854;BMP180;6495;51.808;7.478;2022-07-29T13:59:55;101162.00;;;23.10
12854;BMP180;6495;51.808;7.478;2022-07-29T14:02:23;101157.00;;;23.20
12854;BMP180;6495;51.808;7.478;2022-07-29T14:04:52;101162.00;;;23.20
12854;BMP180;6495;51.808;7.478;2022-07-29T14:07:23;101164.00;;;23.20
12854;BMP180;6495;51.808;7.478;2022-07-29T14:09:51;101164.00;;;23.20
12854;BMP180;6495;51.808;7.478;2022-07-29T14:12:19;101164.00;;;23.30
12854;BMP180;6495;51.808;7.478;2022-07-29T14:14:47;101165.00;;;23.40
12854;BMP180;6495;51.808;7.478;2022-07-29T14:17:16;101158.00;;;23.60
12854;BMP180;6495;51.808;7.478;2022-07-29T14:19:44;101157.00;;;23.70
12854;BMP180;6495;51.808;7.478;2022-07-29T14:22:12;101159.00;;;23.80
12854;BMP180;6495;51.808;7.478;2022-07-29T14:24:43;101168.00;;;23.90
12854;BMP180;6495;51.808;7.478;2022-07-29T14:27:12;101170.00;;;24.00
12854;BMP180;6495;51.808;7.478;2022-07-29T14:29:40;101164.00;;;24.10
12854;BMP180;6495;51.808;7.478;2022-07-29T14:32:09;101170.00;;;23.90
12854;BMP180;6495;51.808;7.478;2022-07-29T14:34:38;101166.00;;;24.00
12854;BMP180;6495;51.808;7.478;2022-07-29T14:37:07;101165.00;;;24.00